createdAt,value
2019-01-15T00:02:16.760Z,88.60
2019-01-15T00:04:47.171Z,88.60
2019-01-15T00:07:18.767Z,88.30
2019-01-15T00:09:49.199Z,88.30
2019-01-15T00:12:19.572Z,88.60
2019-01-15T00:14:50.076Z,88.80
2019-01-15T00:17:20.408Z,89.90
2019-01-15T00:19:50.801Z,89.00
2019-01-15T00:22:21.218Z,88.80
2019-01-15T00:24:51.585Z,89.00
2019-01-15T00:27:21.964Z,89.10
2019-01-15T00:29:52.463Z,89.50
2019-01-15T00:32:22.907Z,89.60
2019-01-15T00:34:53.378Z,89.70
2019-01-15T00:37:23.957Z,89.90
2019-01-15T00:39:54.299Z,90.10
2019-01-15T00:42:24.681Z,90.20
2019-01-15T00:44:55.044Z,90.20
2019-01-15T00:47:25.526Z,90.20
2019-01-15T00:49:56.029Z,90.30
2019-01-15T00:52:26.433Z,90.40
2019-01-15T00:54:56.843Z,90.40
2019-01-15T00:57:27.311Z,90.50
2019-01-15T00:59:57.785Z,90.60
2019-01-15T01:02:28.174Z,90.70
2019-01-15T01:04:58.531Z,90.50
2019-01-15T01:07:29.045Z,90.60
2019-01-15T01:09:59.368Z,90.60
2019-01-15T01:12:29.828Z,90.50
2019-01-15T01:15:00.307Z,90.70
2019-01-15T01:17:30.827Z,90.50
2019-01-15T01:20:01.236Z,90.50
2019-01-15T01:22:31.736Z,90.50
2019-01-15T01:25:02.160Z,90.40
2019-01-15T01:27:32.584Z,90.30
2019-01-15T01:30:02.959Z,90.20
2019-01-15T01:32:33.438Z,90.20
2019-01-15T01:35:03.965Z,90.20
2019-01-15T01:37:34.294Z,90.30
2019-01-15T01:40:06.517Z,90.30
2019-01-15T01:42:36.940Z,90.40
2019-01-15T01:45:08.301Z,90.20
2019-01-15T01:47:38.832Z,90.20
2019-01-15T01:50:10.341Z,90.20
2019-01-15T01:52:41.088Z,90.20
2019-01-15T01:55:12.949Z,90.20
2019-01-15T01:57:43.504Z,90.30
2019-01-15T02:00:21.289Z,90.20
2019-01-15T02:02:51.972Z,90.20
2019-01-15T02:05:22.605Z,90.30
2019-01-15T02:07:53.095Z,90.20
2019-01-15T02:10:23.556Z,90.20
2019-01-15T02:12:53.983Z,90.10
2019-01-15T02:15:25.397Z,90.00
2019-01-15T02:17:55.783Z,90.00
2019-01-15T02:20:26.181Z,90.10
2019-01-15T02:22:56.529Z,90.10
2019-01-15T02:25:26.911Z,90.60
2019-01-15T02:27:57.316Z,90.10
2019-01-15T02:30:28.084Z,90.20
2019-01-15T02:32:58.513Z,90.30
2019-01-15T02:35:28.885Z,90.10
2019-01-15T02:37:59.233Z,90.10
2019-01-15T02:40:29.627Z,90.20
2019-01-15T02:43:00.090Z,90.10
2019-01-15T02:45:30.523Z,90.20
2019-01-15T02:48:00.926Z,90.40
2019-01-15T02:50:31.302Z,90.50
2019-01-15T02:53:01.740Z,90.50
2019-01-15T02:55:32.153Z,90.50
2019-01-15T02:58:02.562Z,90.50
2019-01-15T03:00:32.914Z,90.50
2019-01-15T03:03:03.351Z,90.50
2019-01-15T03:05:33.763Z,90.50
2019-01-15T03:08:04.159Z,90.50
2019-01-15T03:10:34.562Z,90.30
2019-01-15T03:13:05.051Z,90.20
2019-01-15T03:15:35.463Z,89.90
2019-01-15T03:18:05.841Z,90.10
2019-01-15T03:20:36.282Z,90.10
2019-01-15T03:23:06.366Z,90.20
2019-01-15T03:25:36.831Z,90.10
2019-01-15T03:28:07.574Z,90.20
2019-01-15T03:30:38.258Z,90.20
2019-01-15T03:33:08.640Z,90.00
2019-01-15T03:35:39.344Z,90.10
2019-01-15T03:38:09.758Z,90.20
2019-01-15T03:40:40.176Z,90.10
2019-01-15T03:43:10.492Z,90.00
2019-01-15T03:45:41.194Z,90.10
2019-01-15T03:48:11.585Z,90.10
2019-01-15T03:50:42.119Z,90.00
2019-01-15T03:53:12.640Z,89.80
2019-01-15T03:55:43.105Z,89.90
2019-01-15T03:58:13.595Z,90.00
2019-01-15T04:00:44.122Z,89.80
2019-01-15T04:03:14.607Z,90.00
2019-01-15T04:05:45.026Z,90.10
2019-01-15T04:08:14.993Z,90.00
2019-01-15T04:10:45.464Z,90.10
2019-01-15T04:13:15.976Z,90.10
2019-01-15T04:15:46.369Z,90.20
2019-01-15T04:18:16.758Z,90.50
2019-01-15T04:20:47.185Z,90.10
2019-01-15T04:23:17.530Z,90.20
2019-01-15T04:25:47.918Z,90.20
2019-01-15T04:28:18.369Z,90.30
2019-01-15T04:30:48.764Z,90.20
2019-01-15T04:33:19.284Z,90.20
2019-01-15T04:35:49.837Z,90.20
2019-01-15T04:38:20.272Z,90.30
2019-01-15T04:40:50.781Z,90.30
2019-01-15T04:43:21.241Z,90.30
2019-01-15T04:45:51.677Z,90.30
2019-01-15T04:48:22.563Z,90.40
2019-01-15T04:50:53.101Z,90.30
2019-01-15T04:53:23.544Z,90.30
2019-01-15T04:55:54.028Z,90.20
2019-01-15T04:58:24.478Z,90.30
2019-01-15T05:00:54.965Z,90.70
2019-01-15T05:03:25.384Z,90.40
2019-01-15T05:05:55.751Z,90.40
2019-01-15T05:08:26.103Z,90.30
2019-01-15T05:10:56.489Z,90.50
2019-01-15T05:13:27.438Z,90.30
2019-01-15T05:15:58.133Z,90.40
2019-01-15T05:18:28.612Z,90.60
2019-01-15T05:20:59.071Z,90.50
2019-01-15T05:23:29.465Z,90.60
2019-01-15T05:25:59.873Z,90.70
2019-01-15T05:28:30.371Z,90.70
2019-01-15T05:31:00.855Z,90.80
2019-01-15T05:33:31.278Z,90.90
2019-01-15T05:36:01.813Z,91.10
2019-01-15T05:38:32.250Z,91.20
2019-01-15T05:41:02.668Z,91.50
2019-01-15T05:43:35.737Z,91.10
2019-01-15T05:46:05.307Z,91.30
2019-01-15T05:48:37.257Z,91.30
2019-01-15T05:51:29.978Z,91.50
2019-01-15T05:54:00.410Z,91.60
2019-01-15T05:56:30.870Z,91.70
2019-01-15T05:59:01.288Z,91.70
2019-01-15T06:01:31.805Z,91.70
2019-01-15T06:04:02.328Z,91.90
2019-01-15T06:06:32.868Z,92.00
2019-01-15T06:09:04.478Z,92.10
2019-01-15T06:11:34.869Z,92.10
2019-01-15T06:14:05.407Z,92.20
2019-01-15T06:16:35.831Z,92.20
2019-01-15T06:19:06.237Z,92.10
2019-01-15T06:21:36.612Z,92.20
2019-01-15T06:24:07.099Z,92.10
2019-01-15T06:26:37.625Z,92.20
2019-01-15T06:29:08.201Z,92.20
2019-01-15T06:31:38.720Z,92.20
2019-01-15T06:34:09.147Z,92.20
2019-01-15T06:36:39.689Z,92.10
2019-01-15T06:39:10.441Z,92.10
2019-01-15T06:41:40.972Z,92.20
2019-01-15T06:44:11.348Z,92.20
2019-01-15T06:46:41.744Z,92.30
2019-01-15T06:49:12.049Z,92.10
2019-01-15T06:51:42.583Z,92.20
2019-01-15T06:54:14.268Z,92.20
2019-01-15T06:56:44.718Z,92.10
2019-01-15T06:59:15.102Z,92.20
2019-01-15T07:01:45.552Z,92.20
2019-01-15T07:04:15.886Z,92.20
2019-01-15T07:06:46.357Z,92.20
2019-01-15T07:09:16.760Z,92.00
2019-01-15T07:11:47.074Z,92.10
2019-01-15T07:14:17.440Z,92.20
2019-01-15T07:16:47.947Z,92.10
2019-01-15T07:19:18.380Z,92.10
2019-01-15T07:21:49.188Z,92.20
2019-01-15T07:24:19.710Z,92.10
2019-01-15T07:26:50.127Z,92.30
2019-01-15T07:29:20.626Z,92.30
2019-01-15T07:31:51.042Z,92.20
2019-01-15T07:34:21.601Z,92.30
2019-01-15T07:36:52.041Z,92.40
2019-01-15T07:39:22.593Z,92.40
2019-01-15T07:41:52.980Z,92.50
2019-01-15T07:44:23.330Z,92.50
2019-01-15T07:46:53.774Z,92.50
2019-01-15T07:49:24.118Z,92.60
2019-01-15T07:51:54.552Z,92.70
2019-01-15T07:54:24.997Z,92.80
2019-01-15T07:56:55.458Z,92.80
2019-01-15T07:59:25.876Z,92.80
2019-01-15T08:01:56.666Z,92.90
2019-01-15T08:04:27.142Z,92.80
2019-01-15T08:06:57.489Z,92.90
2019-01-15T08:09:27.925Z,92.80
2019-01-15T08:11:58.441Z,93.00
2019-01-15T08:14:29.034Z,93.10
2019-01-15T08:16:59.506Z,93.10
2019-01-15T08:19:29.893Z,93.10
2019-01-15T08:22:00.253Z,93.20
2019-01-15T08:24:30.816Z,93.20
2019-01-15T08:27:01.635Z,93.20
2019-01-15T08:29:32.257Z,93.20
2019-01-15T08:32:02.915Z,93.30
2019-01-15T08:34:33.379Z,93.30
2019-01-15T08:37:06.049Z,93.40
2019-01-15T08:39:37.768Z,93.50
2019-01-15T08:42:09.523Z,93.50
2019-01-15T08:44:41.516Z,93.60
2019-01-15T08:47:12.710Z,93.50
2019-01-15T08:49:45.298Z,93.60
2019-01-15T08:52:15.772Z,93.60
2019-01-15T08:54:46.286Z,93.60
2019-01-15T08:57:16.709Z,93.70
2019-01-15T08:59:47.173Z,93.80
2019-01-15T09:02:18.170Z,93.90
2019-01-15T09:04:48.589Z,93.90
2019-01-15T09:07:18.992Z,94.00
2019-01-15T09:09:49.464Z,94.10
2019-01-15T09:12:19.926Z,94.20
2019-01-15T09:14:50.339Z,94.60
2019-01-15T09:17:20.919Z,94.20
2019-01-15T09:19:51.381Z,94.20
2019-01-15T09:22:21.724Z,94.30
2019-01-15T09:24:52.141Z,94.30
2019-01-15T09:27:22.648Z,94.30
2019-01-15T09:29:53.401Z,94.10
2019-01-15T09:32:23.957Z,94.20
2019-01-15T09:34:54.498Z,94.30
2019-01-15T09:37:25.179Z,94.30
2019-01-15T09:39:55.607Z,94.30
2019-01-15T09:42:26.006Z,94.30
2019-01-15T09:44:56.545Z,94.30
2019-01-15T09:47:27.309Z,94.40
2019-01-15T09:49:57.723Z,94.40
2019-01-15T09:52:28.158Z,94.50
2019-01-15T09:54:59.123Z,94.50
2019-01-15T09:57:29.531Z,94.50
2019-01-15T09:59:59.983Z,94.50
2019-01-15T10:02:30.314Z,94.30
2019-01-15T10:05:00.883Z,94.30
2019-01-15T10:07:31.278Z,94.30
2019-01-15T10:10:01.914Z,94.10
2019-01-15T10:12:32.314Z,93.90
2019-01-15T10:15:02.765Z,93.60
2019-01-15T10:17:33.286Z,93.60
2019-01-15T10:20:03.806Z,93.40
2019-01-15T10:22:34.241Z,93.30
2019-01-15T10:25:06.430Z,93.20
2019-01-15T10:27:36.978Z,93.20
2019-01-15T10:30:23.288Z,93.10
2019-01-15T10:33:35.933Z,93.10
2019-01-15T10:36:04.753Z,92.70
2019-01-15T10:38:35.085Z,92.40
2019-01-15T10:41:05.743Z,92.10
2019-01-15T10:56:43.662Z,91.20
2019-01-15T10:59:14.158Z,90.70
2019-01-15T11:01:44.735Z,91.00
2019-01-15T11:04:15.200Z,91.20
2019-01-15T11:06:45.565Z,91.20
2019-01-15T11:09:16.005Z,91.50
2019-01-15T11:11:46.504Z,91.50
2019-01-15T11:14:18.996Z,91.70
2019-01-15T11:16:49.420Z,91.70
2019-01-15T11:19:19.852Z,91.90
2019-01-15T11:21:50.349Z,91.90
2019-01-15T11:24:20.783Z,92.00
2019-01-15T11:26:51.281Z,92.00
2019-01-15T11:29:21.861Z,92.10
2019-01-15T11:31:52.257Z,92.10
2019-01-15T11:34:22.660Z,92.60
2019-01-15T11:36:53.137Z,92.30
2019-01-15T11:39:23.544Z,92.30
2019-01-15T11:41:54.013Z,92.20
2019-01-15T11:44:24.418Z,92.10
2019-01-15T11:46:54.967Z,92.10
2019-01-15T11:49:25.417Z,92.30
2019-01-15T11:51:55.811Z,92.50
2019-01-15T11:54:26.207Z,92.70
2019-01-15T11:56:56.651Z,92.50
2019-01-15T11:59:27.431Z,92.60
2019-01-15T12:02:10.084Z,92.80
2019-01-15T12:04:58.138Z,92.80
2019-01-15T12:08:02.706Z,92.90
2019-01-15T12:10:55.983Z,93.10
2019-01-15T12:13:36.366Z,93.20
2019-01-15T12:16:38.025Z,93.20
2019-01-15T12:19:26.316Z,93.20
2019-01-15T12:22:08.603Z,93.40
2019-01-15T12:24:55.669Z,93.40
2019-01-15T12:27:45.091Z,93.50
2019-01-15T12:30:40.552Z,93.50
2019-01-15T12:33:28.910Z,93.70
2019-01-15T12:36:30.847Z,93.60
2019-01-15T12:39:19.190Z,93.60
2019-01-15T12:42:14.356Z,93.70
2019-01-15T12:45:18.330Z,93.80
2019-01-15T12:48:16.432Z,94.00
2019-01-15T12:51:00.237Z,94.00
2019-01-15T12:53:52.435Z,94.10
2019-01-15T12:56:38.561Z,94.00
2019-01-15T12:59:27.931Z,93.90
2019-01-15T13:02:13.195Z,93.80
2019-01-15T13:04:58.990Z,93.80
2019-01-15T13:07:47.472Z,93.50
2019-01-15T13:10:36.895Z,93.40
2019-01-15T13:13:32.861Z,93.40
2019-01-15T13:16:28.184Z,93.40
2019-01-15T13:19:23.853Z,93.50
2019-01-15T13:22:12.173Z,93.40
2019-01-15T13:25:04.600Z,93.20
2019-01-15T13:27:50.050Z,93.40
2019-01-15T13:30:30.765Z,93.30
2019-01-15T13:33:23.341Z,93.30
2019-01-15T13:36:05.879Z,93.40
2019-01-15T13:39:01.276Z,93.40
2019-01-15T13:41:49.886Z,93.50
2019-01-15T13:44:54.566Z,93.20
2019-01-15T13:47:42.651Z,93.30
2019-01-15T13:50:32.219Z,93.40
2019-01-15T13:53:27.566Z,93.40
2019-01-15T13:56:08.575Z,93.60
2019-01-15T13:58:58.072Z,93.60
2019-01-15T14:01:41.358Z,93.50
2019-01-15T14:04:31.388Z,93.70
2019-01-15T14:07:27.818Z,93.60
2019-01-15T14:10:15.802Z,93.50
2019-01-15T14:12:57.818Z,93.60
2019-01-15T14:15:41.333Z,93.50
2019-01-15T14:18:25.748Z,93.60
2019-01-15T14:21:24.000Z,93.50
2019-01-15T14:24:12.025Z,93.70
2019-01-15T14:27:13.847Z,93.70
2019-01-15T14:30:02.134Z,93.80
2019-01-15T14:32:43.541Z,93.80
2019-01-15T14:35:27.631Z,93.80
2019-01-15T14:38:15.183Z,93.60
2019-01-15T14:41:10.518Z,93.80
2019-01-15T14:43:58.524Z,93.80
2019-01-15T14:46:46.611Z,93.70
2019-01-15T14:49:51.167Z,93.80
2019-01-15T14:52:49.723Z,93.80
2019-01-15T14:55:40.809Z,94.00
2019-01-15T14:58:28.898Z,94.00
2019-01-15T15:01:36.597Z,94.10
2019-01-15T15:04:28.861Z,94.10
2019-01-15T15:07:21.158Z,94.40
2019-01-15T15:10:19.640Z,94.50
2019-01-15T15:13:09.000Z,94.60
2019-01-15T15:15:48.546Z,94.80
2019-01-15T15:18:41.024Z,94.90
2019-01-15T15:21:28.055Z,94.90
2019-01-15T15:24:18.824Z,95.10
2019-01-15T15:27:20.541Z,95.00
2019-01-15T15:30:12.994Z,95.00
2019-01-15T15:33:00.958Z,94.90
2019-01-15T15:35:50.146Z,95.00
2019-01-15T15:38:54.965Z,94.90
2019-01-15T15:41:53.312Z,95.30
2019-01-15T15:44:41.640Z,94.90
2019-01-15T15:47:28.458Z,95.00
2019-01-15T15:50:23.982Z,95.10
2019-01-15T15:53:12.381Z,95.20
2019-01-15T15:56:04.570Z,95.20
2019-01-15T15:59:09.215Z,95.30
2019-01-15T16:02:04.637Z,95.40
2019-01-15T16:05:00.230Z,95.40
2019-01-15T16:07:58.775Z,95.50
2019-01-15T16:11:00.173Z,95.60
2019-01-15T16:13:48.455Z,95.80
2019-01-15T16:16:43.751Z,95.90
2019-01-15T16:19:42.581Z,95.80
2019-01-15T16:22:44.209Z,95.90
2019-01-15T16:25:40.015Z,96.10
2019-01-15T16:28:35.774Z,96.00
2019-01-15T16:31:24.276Z,96.00
2019-01-15T16:34:14.810Z,95.90
2019-01-15T16:37:04.160Z,95.90
2019-01-15T16:39:56.376Z,95.90
2019-01-15T16:42:42.652Z,95.90
2019-01-15T16:45:40.514Z,96.00
2019-01-15T16:48:45.357Z,95.90
2019-01-15T16:51:44.377Z,96.00
2019-01-15T16:54:36.808Z,95.90
2019-01-15T16:57:26.170Z,95.60
2019-01-15T17:00:15.570Z,95.50
2019-01-15T17:03:01.393Z,95.70
2019-01-15T17:05:45.470Z,95.50
2019-01-15T17:08:29.335Z,95.50
2019-01-15T17:11:19.770Z,95.60
2019-01-15T17:14:21.647Z,95.50
2019-01-15T17:17:20.706Z,95.60
2019-01-15T17:20:28.189Z,95.70
2019-01-15T17:23:20.342Z,95.70
2019-01-15T17:26:10.547Z,95.70
2019-01-15T17:29:09.305Z,95.90
2019-01-15T17:31:57.683Z,96.00
2019-01-15T17:34:47.073Z,95.80
2019-01-15T17:37:38.842Z,95.70
2019-01-15T17:40:28.524Z,95.70
2019-01-15T17:43:14.877Z,95.70
2019-01-15T17:46:10.297Z,95.70
2019-01-15T17:49:06.435Z,95.70
2019-01-15T17:51:55.358Z,95.70
2019-01-15T17:54:43.747Z,95.80
2019-01-15T17:57:39.827Z,95.80
2019-01-15T18:00:45.953Z,95.80
2019-01-15T18:03:35.221Z,95.80
2019-01-15T18:06:25.737Z,95.70
2019-01-15T18:09:13.084Z,95.80
2019-01-15T18:12:01.383Z,95.60
2019-01-15T18:14:49.804Z,95.60
2019-01-15T18:17:39.993Z,95.50
2019-01-15T18:20:28.272Z,95.30
2019-01-15T18:23:10.609Z,95.20
2019-01-15T18:26:03.013Z,95.40
2019-01-15T18:28:58.496Z,95.60
2019-01-15T18:31:48.829Z,95.20
2019-01-15T18:34:37.324Z,95.10
2019-01-15T18:37:25.768Z,95.30
2019-01-15T18:40:12.821Z,95.00
2019-01-15T18:43:14.545Z,94.90
2019-01-15T18:46:07.075Z,95.00
2019-01-15T18:48:59.278Z,95.00
2019-01-15T18:51:46.207Z,95.00
2019-01-15T18:54:34.705Z,95.00
2019-01-15T18:57:39.601Z,95.00
2019-01-15T19:00:40.225Z,94.90
2019-01-15T19:03:33.776Z,95.00
2019-01-15T19:06:23.251Z,95.20
2019-01-15T19:09:06.342Z,95.10
2019-01-15T19:11:54.662Z,95.10
2019-01-15T19:14:42.587Z,95.10
2019-01-15T19:17:47.386Z,95.10
2019-01-15T19:20:49.230Z,95.00
2019-01-15T19:23:38.712Z,95.10
2019-01-15T19:26:17.295Z,95.10
2019-01-15T19:29:24.919Z,95.20
2019-01-15T19:32:26.435Z,95.30
2019-01-15T19:35:20.020Z,95.30
2019-01-15T19:38:08.569Z,95.50
2019-01-15T19:41:04.249Z,95.50
2019-01-15T19:43:43.291Z,95.50
2019-01-15T19:46:38.485Z,95.50
2019-01-15T19:49:34.526Z,95.40
2019-01-15T19:52:22.858Z,95.50
2019-01-15T19:55:21.422Z,95.50
2019-01-15T19:58:09.712Z,95.60
2019-01-15T20:00:52.553Z,95.50
2019-01-15T20:03:40.609Z,95.50
2019-01-15T20:06:33.712Z,95.70
2019-01-15T20:09:16.025Z,95.80
2019-01-15T20:12:08.228Z,96.00
2019-01-15T20:15:09.957Z,96.00
2019-01-15T20:18:05.360Z,96.00
2019-01-15T20:20:54.731Z,96.00
2019-01-15T20:23:36.392Z,95.90
2019-01-15T20:26:25.952Z,95.90
2019-01-15T20:29:12.162Z,95.90
2019-01-15T20:32:03.583Z,96.00
2019-01-15T20:34:53.290Z,96.00
2019-01-15T20:37:41.772Z,96.10
2019-01-15T20:40:31.568Z,96.20
2019-01-15T20:43:27.315Z,96.20
2019-01-15T20:46:28.853Z,96.10
2019-01-15T20:49:13.834Z,96.10
2019-01-15T20:51:57.404Z,96.50
2019-01-15T20:54:36.566Z,96.20
2019-01-15T20:57:35.607Z,96.20
2019-01-15T21:00:26.457Z,96.10
2019-01-15T21:03:24.491Z,96.20
2019-01-15T21:06:07.077Z,96.20
2019-01-15T21:09:01.496Z,96.10
2019-01-15T21:11:50.999Z,96.30
2019-01-15T21:30:12.025Z,95.80
2019-01-15T21:33:13.766Z,95.20
2019-01-15T21:36:06.066Z,95.70
2019-01-15T21:38:54.226Z,95.90
2019-01-15T21:41:32.668Z,95.90
2019-01-15T21:44:25.210Z,95.90
2019-01-15T21:47:21.902Z,96.10
2019-01-15T21:50:12.661Z,96.20
2019-01-15T21:53:06.456Z,96.30
2019-01-15T21:55:54.389Z,96.50
2019-01-15T21:58:43.237Z,96.60
2019-01-15T22:01:38.757Z,96.70
2019-01-15T22:04:34.146Z,96.70
2019-01-15T22:07:18.301Z,96.80
2019-01-15T22:09:58.110Z,96.80
2019-01-15T22:12:50.601Z,96.90
2019-01-15T22:15:49.114Z,96.90
2019-01-15T22:18:38.633Z,96.80
2019-01-15T22:21:28.381Z,96.80
2019-01-15T22:24:18.453Z,96.90
2019-01-15T22:27:00.009Z,97.10
2019-01-15T22:29:48.965Z,96.90
2019-01-15T22:32:37.358Z,96.90
2019-01-15T22:35:20.230Z,96.70
2019-01-15T22:38:09.643Z,97.10
2019-01-15T22:40:55.912Z,97.20
2019-01-15T22:43:46.544Z,96.70
2019-01-15T22:46:49.856Z,96.60
2019-01-15T22:49:46.751Z,96.60
2019-01-15T22:52:31.486Z,96.50
2019-01-15T22:55:40.524Z,96.50
2019-01-15T22:58:33.609Z,96.30
2019-01-15T23:01:26.887Z,96.30
2019-01-15T23:04:26.145Z,96.10
2019-01-15T23:07:28.941Z,96.00
2019-01-15T23:10:32.531Z,96.10
2019-01-15T23:13:16.176Z,95.90
2019-01-15T23:15:56.073Z,95.80
2019-01-15T23:19:01.510Z,95.70
2019-01-15T23:22:03.811Z,95.70
2019-01-15T23:24:59.780Z,95.70
2019-01-15T23:27:49.866Z,95.90
2019-01-15T23:30:38.957Z,95.80
2019-01-15T23:33:34.569Z,95.90
2019-01-15T23:36:17.528Z,95.70
2019-01-15T23:39:07.048Z,95.70
2019-01-15T23:41:55.328Z,95.70
2019-01-15T23:44:35.072Z,95.70
2019-01-15T23:47:25.997Z,95.60
2019-01-15T23:50:30.600Z,95.50
2019-01-15T23:53:19.988Z,95.60
2019-01-15T23:56:18.476Z,95.70
2019-01-15T23:59:13.908Z,95.60
